createdAt,value
2023-04-27T00:01:03.321Z,53.86
2023-04-27T00:03:34.148Z,53.86
2023-04-27T00:06:05.087Z,53.87
2023-04-27T00:08:36.030Z,53.86
2023-04-27T00:11:07.212Z,53.63
2023-04-27T00:13:37.979Z,53.67
2023-04-27T00:16:09.114Z,53.90
2023-04-27T00:18:39.966Z,53.73
2023-04-27T00:21:11.487Z,53.65
2023-04-27T00:23:42.301Z,53.71
2023-04-27T00:26:13.120Z,53.85
2023-04-27T00:28:43.852Z,53.65
2023-04-27T00:31:14.708Z,53.41
2023-04-27T00:33:45.389Z,53.51
2023-04-27T00:36:16.151Z,53.42
2023-04-27T00:38:46.931Z,53.44
2023-04-27T00:41:17.785Z,53.40
2023-04-27T00:43:48.331Z,53.34
2023-04-27T00:46:19.994Z,53.34
2023-04-27T00:48:50.714Z,53.43
2023-04-27T00:51:21.619Z,53.38
2023-04-27T00:53:52.384Z,53.09
2023-04-27T00:56:23.222Z,53.02
2023-04-27T00:58:54.085Z,53.25
2023-04-27T01:01:25.305Z,53.12
2023-04-27T01:03:56.245Z,53.41
2023-04-27T01:06:28.409Z,53.25
2023-04-27T01:08:59.172Z,53.12
2023-04-27T01:11:29.991Z,52.86
2023-04-27T01:14:02.757Z,53.06
2023-04-27T01:16:33.551Z,52.87
2023-04-27T01:19:05.119Z,52.82
2023-04-27T01:21:35.900Z,53.05
2023-04-27T01:24:07.418Z,53.09
2023-04-27T01:26:38.217Z,53.02
2023-04-27T01:29:08.994Z,52.95
2023-04-27T01:31:40.051Z,52.78
2023-04-27T01:34:10.912Z,53.01
2023-04-27T01:36:41.876Z,52.76
2023-04-27T01:39:12.944Z,52.96
2023-04-27T01:41:44.056Z,52.79
2023-04-27T01:44:14.872Z,52.83
2023-04-27T01:46:45.601Z,52.64
2023-04-27T01:49:16.700Z,52.69
2023-04-27T01:51:47.725Z,52.73
2023-04-27T01:54:18.636Z,52.64
2023-04-27T01:56:49.382Z,52.83
2023-04-27T01:59:20.226Z,52.81
2023-04-27T02:01:51.114Z,52.42
2023-04-27T02:04:21.979Z,52.54
2023-04-27T02:06:52.907Z,52.58
2023-04-27T02:09:23.879Z,52.51
2023-04-27T02:11:54.637Z,52.44
2023-04-27T02:14:25.484Z,52.52
2023-04-27T02:16:56.319Z,52.45
2023-04-27T02:19:27.146Z,52.42
2023-04-27T02:21:57.867Z,52.38
2023-04-27T02:24:28.812Z,52.34
2023-04-27T02:26:59.576Z,52.29
2023-04-27T02:29:32.713Z,52.20
2023-04-27T02:32:03.974Z,52.20
2023-04-27T02:34:34.693Z,52.10
2023-04-27T02:37:05.498Z,52.09
2023-04-27T02:39:36.309Z,51.93
2023-04-27T02:42:07.213Z,52.10
2023-04-27T02:44:38.084Z,52.02
2023-04-27T02:47:08.989Z,52.10
2023-04-27T02:49:39.930Z,52.04
2023-04-27T02:52:10.882Z,51.82
2023-04-27T02:54:41.640Z,51.81
2023-04-27T02:57:12.439Z,51.82
2023-04-27T02:59:43.249Z,51.95
2023-04-27T03:02:14.114Z,52.06
2023-04-27T03:04:45.076Z,51.81
2023-04-27T03:07:15.936Z,51.81
2023-04-27T03:09:46.943Z,51.74
2023-04-27T03:12:17.855Z,51.73
2023-04-27T03:14:48.608Z,51.63
2023-04-27T03:17:19.257Z,51.67
2023-04-27T03:19:50.447Z,51.47
2023-04-27T03:22:21.185Z,51.38
2023-04-27T03:24:51.962Z,51.54
2023-04-27T03:27:23.062Z,51.59
2023-04-27T03:29:54.307Z,51.47
2023-04-27T03:32:25.073Z,51.33
2023-04-27T03:34:56.434Z,51.37
2023-04-27T03:37:27.230Z,51.55
2023-04-27T03:39:58.041Z,51.86
2023-04-27T03:42:29.621Z,52.00
2023-04-27T03:45:00.552Z,52.44
2023-04-27T03:47:31.413Z,52.71
2023-04-27T03:50:02.126Z,52.68
2023-04-27T03:52:32.863Z,52.81
2023-04-27T03:55:03.658Z,53.03
2023-04-27T03:57:34.494Z,53.05
2023-04-27T04:00:11.644Z,53.33
2023-04-27T04:02:42.600Z,53.25
2023-04-27T04:05:14.897Z,53.37
2023-04-27T04:07:45.964Z,53.35
2023-04-27T04:10:16.986Z,53.52
2023-04-27T04:12:47.787Z,53.57
2023-04-27T04:15:18.981Z,53.60
2023-04-27T04:17:49.935Z,53.52
2023-04-27T04:20:20.753Z,53.75
2023-04-27T04:22:51.695Z,53.79
2023-04-27T04:25:22.536Z,53.80
2023-04-27T04:27:53.438Z,53.90
2023-04-27T04:30:24.439Z,53.63
2023-04-27T04:32:55.435Z,53.76
2023-04-27T04:35:26.340Z,53.97
2023-04-27T04:37:57.242Z,53.86
2023-04-27T04:40:28.659Z,53.99
2023-04-27T04:42:59.625Z,54.15
2023-04-27T04:45:30.566Z,54.04
2023-04-27T04:48:02.274Z,54.15
2023-04-27T04:50:33.851Z,54.19
2023-04-27T04:53:07.190Z,54.37
2023-04-27T04:55:38.395Z,54.25
2023-04-27T04:58:12.653Z,54.04
2023-04-27T05:00:48.727Z,53.85
2023-04-27T05:03:19.825Z,53.96
2023-04-27T05:05:50.880Z,54.14
2023-04-27T05:08:21.909Z,54.36
2023-04-27T05:10:53.280Z,54.52
2023-04-27T05:13:25.532Z,54.36
2023-04-27T05:15:56.586Z,54.40
2023-04-27T05:18:27.733Z,54.54
2023-04-27T05:21:01.278Z,54.84
2023-04-27T05:23:34.081Z,54.64
2023-04-27T05:26:14.156Z,54.56
2023-04-27T05:28:45.363Z,54.66
2023-04-27T05:31:16.269Z,54.90
2023-04-27T05:33:47.139Z,54.67
2023-04-27T05:36:19.146Z,54.89
2023-04-27T05:38:49.972Z,54.46
2023-04-27T05:41:20.849Z,55.03
2023-04-27T05:43:51.761Z,54.73
2023-04-27T05:46:22.718Z,55.17
2023-04-27T05:48:53.610Z,55.07
2023-04-27T05:51:24.668Z,54.96
2023-04-27T05:53:57.620Z,55.05
2023-04-27T05:56:28.532Z,55.16
2023-04-27T05:59:01.747Z,54.99
2023-04-27T06:01:33.598Z,54.94
2023-04-27T06:04:04.901Z,55.10
2023-04-27T06:06:36.096Z,55.20
2023-04-27T06:09:07.243Z,55.31
2023-04-27T06:11:37.947Z,55.38
2023-04-27T06:14:08.768Z,55.14
2023-04-27T06:16:40.722Z,55.68
2023-04-27T06:19:11.649Z,55.54
2023-04-27T06:21:42.730Z,55.42
2023-04-27T06:24:13.469Z,55.35
2023-04-27T06:26:44.321Z,55.43
2023-04-27T06:29:15.485Z,55.22
2023-04-27T06:31:47.431Z,55.50
2023-04-27T06:34:18.348Z,55.51
2023-04-27T06:36:49.403Z,55.32
2023-04-27T06:39:20.390Z,55.11
2023-04-27T06:41:51.211Z,55.27
2023-04-27T06:44:22.078Z,55.14
2023-04-27T06:46:52.917Z,55.29
2023-04-27T06:49:23.880Z,55.49
2023-04-27T06:51:54.826Z,55.41
2023-04-27T06:54:25.870Z,55.39
2023-04-27T06:56:56.679Z,55.33
2023-04-27T06:59:27.615Z,55.46
2023-04-27T07:01:59.120Z,55.28
2023-04-27T07:04:30.544Z,55.22
2023-04-27T07:07:01.550Z,55.20
2023-04-27T07:09:32.959Z,55.04
2023-04-27T07:12:04.236Z,54.74
2023-04-27T07:14:35.196Z,54.63
2023-04-27T07:17:06.215Z,54.60
2023-04-27T07:19:37.267Z,54.65
2023-04-27T07:22:08.251Z,54.60
2023-04-27T07:24:39.048Z,54.63
2023-04-27T07:27:10.473Z,54.45
2023-04-27T07:29:41.370Z,54.24
2023-04-27T07:32:12.074Z,54.44
2023-04-27T07:34:52.766Z,54.39
2023-04-27T07:37:25.035Z,54.37
2023-04-27T07:39:55.836Z,54.20
2023-04-27T07:42:26.642Z,54.12
2023-04-27T07:44:57.370Z,54.07
2023-04-27T07:47:28.212Z,54.04
2023-04-27T07:49:59.136Z,54.28
2023-04-27T07:52:29.909Z,54.30
2023-04-27T07:55:00.703Z,54.22
2023-04-27T07:57:31.631Z,54.27
2023-04-27T08:00:02.422Z,54.20
2023-04-27T08:02:34.866Z,54.48
2023-04-27T08:05:06.471Z,54.56
2023-04-27T08:07:42.787Z,54.48
2023-04-27T08:10:16.002Z,54.45
2023-04-27T08:12:46.806Z,54.32
2023-04-27T08:15:17.668Z,54.33
2023-04-27T08:17:48.567Z,54.30
2023-04-27T08:20:19.513Z,54.18
2023-04-27T08:22:52.366Z,54.20
2023-04-27T08:25:23.312Z,54.04
2023-04-27T08:27:54.142Z,53.99
2023-04-27T08:30:25.195Z,54.19
2023-04-27T08:32:56.045Z,54.08
2023-04-27T08:35:26.813Z,53.80
2023-04-27T08:37:57.563Z,53.99
2023-04-27T08:40:28.422Z,53.87
2023-04-27T08:42:59.967Z,53.92
2023-04-27T08:45:30.898Z,54.11
2023-04-27T08:48:01.866Z,53.94
2023-04-27T08:50:32.708Z,53.86
2023-04-27T08:53:03.584Z,53.69
2023-04-27T08:55:34.374Z,53.76
2023-04-27T08:58:05.202Z,53.74
2023-04-27T09:00:41.864Z,53.77
2023-04-27T09:03:23.468Z,53.85
2023-04-27T09:06:04.735Z,53.85
2023-04-27T09:08:47.141Z,53.94
2023-04-27T09:11:18.331Z,53.50
2023-04-27T09:13:49.146Z,53.45
2023-04-27T09:16:24.145Z,53.45
2023-04-27T09:18:56.098Z,53.49
2023-04-27T09:21:28.001Z,53.51
2023-04-27T09:23:58.782Z,53.46
2023-04-27T09:26:31.655Z,53.41
2023-04-27T09:29:03.787Z,53.40
2023-04-27T09:31:34.804Z,53.36
2023-04-27T09:34:05.644Z,53.28
2023-04-27T09:36:36.479Z,53.37
2023-04-27T09:39:07.554Z,53.41
2023-04-27T09:41:38.610Z,52.79
2023-04-27T09:44:10.630Z,52.76
2023-04-27T09:46:41.567Z,52.68
2023-04-27T09:49:12.474Z,52.78
2023-04-27T09:51:43.346Z,52.84
2023-04-27T09:54:14.064Z,52.15
2023-04-27T09:56:48.063Z,51.90
2023-04-27T09:59:26.964Z,51.56
2023-04-27T10:02:00.071Z,51.32
2023-04-27T10:04:39.833Z,51.28
2023-04-27T10:07:12.896Z,51.41
2023-04-27T10:09:44.470Z,51.06
2023-04-27T10:12:19.095Z,51.16
2023-04-27T10:14:53.695Z,51.15
2023-04-27T10:17:30.797Z,51.01
2023-04-27T10:20:01.989Z,51.00
2023-04-27T10:22:42.478Z,50.57
2023-04-27T10:25:17.847Z,50.48
2023-04-27T10:27:52.953Z,50.26
2023-04-27T10:30:24.998Z,50.17
2023-04-27T10:32:56.928Z,50.04
2023-04-27T10:35:34.971Z,49.71
2023-04-27T10:38:09.735Z,49.33
2023-04-27T10:40:40.714Z,49.49
2023-04-27T10:43:12.048Z,49.31
2023-04-27T10:45:43.249Z,48.85
2023-04-27T10:48:15.882Z,48.78
2023-04-27T10:50:46.979Z,48.85
2023-04-27T10:53:17.925Z,49.15
2023-04-27T10:55:48.698Z,48.95
2023-04-27T10:58:23.818Z,48.32
2023-04-27T11:00:54.727Z,48.17
2023-04-27T11:03:25.989Z,47.70
2023-04-27T11:06:02.507Z,47.90
2023-04-27T11:08:34.404Z,47.98
2023-04-27T11:11:06.324Z,47.47
2023-04-27T11:13:37.236Z,47.58
2023-04-27T11:16:08.379Z,47.53
2023-04-27T11:18:39.600Z,47.63
2023-04-27T11:21:10.798Z,47.12
2023-04-27T11:23:41.736Z,47.10
2023-04-27T11:26:14.754Z,46.54
2023-04-27T11:28:45.847Z,46.13
2023-04-27T11:31:17.096Z,46.09
2023-04-27T11:33:51.930Z,46.10
2023-04-27T11:36:23.004Z,46.31
2023-04-27T11:38:53.994Z,46.27
2023-04-27T11:41:24.836Z,45.71
2023-04-27T11:43:55.551Z,45.37
2023-04-27T11:46:27.569Z,45.55
2023-04-27T11:49:04.991Z,45.92
2023-04-27T11:51:36.229Z,45.78
2023-04-27T11:54:07.380Z,45.42
2023-04-27T11:56:38.552Z,45.16
2023-04-27T11:59:18.984Z,45.30
2023-04-27T12:01:49.868Z,45.20
2023-04-27T12:04:21.173Z,45.11
2023-04-27T12:06:52.455Z,45.15
2023-04-27T12:09:23.193Z,45.27
2023-04-27T12:11:54.992Z,45.46
2023-04-27T12:14:26.115Z,45.35
2023-04-27T12:16:56.929Z,45.48
2023-04-27T12:19:28.233Z,45.42
2023-04-27T12:21:59.395Z,45.48
2023-04-27T12:24:30.280Z,45.26
2023-04-27T12:27:01.523Z,45.21
2023-04-27T12:29:32.998Z,45.39
2023-04-27T12:32:03.806Z,45.33
2023-04-27T12:34:34.781Z,45.16
2023-04-27T12:37:05.829Z,44.91
2023-04-27T12:39:38.644Z,44.68
2023-04-27T12:42:09.449Z,44.52
2023-04-27T12:44:40.276Z,44.66
2023-04-27T12:47:13.581Z,44.84
2023-04-27T12:49:51.383Z,44.98
2023-04-27T12:52:22.139Z,44.68
2023-04-27T12:54:57.888Z,44.42
2023-04-27T12:57:28.786Z,44.54
2023-04-27T13:00:01.583Z,44.78
2023-04-27T13:02:33.237Z,44.68
2023-04-27T13:05:07.990Z,44.66
2023-04-27T13:07:38.840Z,44.90
2023-04-27T13:10:11.748Z,44.92
2023-04-27T13:12:42.541Z,44.83
2023-04-27T13:15:13.588Z,44.86
2023-04-27T13:17:44.530Z,44.93
2023-04-27T13:20:16.006Z,45.44
2023-04-27T13:22:46.922Z,45.50
2023-04-27T13:25:17.856Z,45.43
2023-04-27T13:27:48.698Z,45.27
2023-04-27T13:30:19.396Z,45.31
2023-04-27T13:32:50.343Z,45.46
2023-04-27T13:35:21.357Z,45.91
2023-04-27T13:37:53.970Z,45.86
2023-04-27T13:40:24.864Z,45.79
2023-04-27T13:42:55.692Z,46.07
2023-04-27T13:45:27.065Z,45.89
2023-04-27T13:47:58.129Z,45.85
2023-04-27T13:50:29.086Z,45.87
2023-04-27T13:52:59.788Z,46.04
2023-04-27T13:55:30.875Z,46.12
2023-04-27T13:58:01.641Z,46.20
2023-04-27T14:00:33.752Z,46.23
2023-04-27T14:03:05.120Z,46.28
2023-04-27T14:05:36.243Z,45.89
2023-04-27T14:08:07.246Z,45.80
2023-04-27T14:10:38.769Z,45.49
2023-04-27T14:13:09.576Z,45.46
2023-04-27T14:15:40.337Z,45.47
2023-04-27T14:18:13.848Z,45.34
2023-04-27T14:20:45.568Z,45.72
2023-04-27T14:23:16.324Z,45.77
2023-04-27T14:25:47.071Z,45.62
2023-04-27T14:28:17.754Z,45.58
2023-04-27T14:30:48.467Z,45.25
2023-04-27T14:33:19.171Z,45.43
2023-04-27T14:35:50.083Z,45.61
2023-04-27T14:38:20.863Z,45.83
2023-04-27T14:40:51.566Z,45.94
2023-04-27T14:43:22.433Z,45.79
2023-04-27T14:45:59.365Z,45.44
2023-04-27T14:48:35.845Z,45.35
2023-04-27T14:51:07.125Z,45.12
2023-04-27T14:53:37.985Z,45.29
2023-04-27T14:56:08.894Z,45.19
2023-04-27T14:58:39.918Z,45.14
2023-04-27T15:01:10.924Z,45.30
2023-04-27T15:03:42.139Z,45.35
2023-04-27T15:06:14.061Z,45.58
2023-04-27T15:08:44.929Z,45.48
2023-04-27T15:11:15.952Z,45.57
2023-04-27T15:13:47.058Z,45.49
2023-04-27T15:16:18.131Z,45.25
2023-04-27T15:18:48.851Z,45.09
2023-04-27T15:21:19.595Z,45.06
2023-04-27T15:23:50.412Z,45.09
2023-04-27T15:26:21.233Z,44.93
2023-04-27T15:28:52.041Z,44.97
2023-04-27T15:31:22.921Z,44.89
2023-04-27T15:33:54.799Z,44.91
2023-04-27T15:36:26.911Z,44.86
2023-04-27T15:38:57.825Z,44.67
2023-04-27T15:41:28.838Z,44.94
2023-04-27T15:43:59.603Z,44.75
2023-04-27T15:46:30.450Z,44.75
2023-04-27T15:49:01.288Z,44.92
2023-04-27T15:51:32.488Z,45.05
2023-04-27T15:54:03.349Z,45.16
2023-04-27T15:56:34.199Z,45.13
2023-04-27T15:59:05.033Z,45.15
2023-04-27T16:01:36.649Z,45.02
2023-04-27T16:04:07.757Z,45.02
2023-04-27T16:06:39.289Z,45.22
2023-04-27T16:09:11.755Z,45.12
2023-04-27T16:11:43.604Z,44.81
2023-04-27T16:14:14.476Z,45.08
2023-04-27T16:16:46.247Z,45.25
2023-04-27T16:19:19.092Z,45.12
2023-04-27T16:21:50.068Z,45.11
2023-04-27T16:24:20.880Z,45.17
2023-04-27T16:26:51.691Z,45.17
2023-04-27T16:29:22.617Z,45.24
2023-04-27T16:31:53.556Z,45.36
2023-04-27T16:34:24.506Z,45.28
2023-04-27T16:36:55.503Z,45.13
2023-04-27T16:39:26.220Z,45.07
2023-04-27T16:41:57.051Z,45.32
2023-04-27T16:44:27.914Z,45.22
2023-04-27T16:46:58.751Z,45.19
2023-04-27T16:49:29.553Z,45.28
2023-04-27T16:52:00.417Z,45.28
2023-04-27T16:54:31.276Z,45.26
2023-04-27T16:57:02.244Z,45.37
2023-04-27T16:59:33.388Z,45.47
2023-04-27T17:02:23.209Z,45.35
2023-04-27T17:04:55.330Z,45.36
2023-04-27T17:07:28.688Z,45.51
2023-04-27T17:09:59.861Z,45.63
2023-04-27T17:12:30.662Z,45.60
2023-04-27T17:15:01.550Z,45.65
2023-04-27T17:17:33.996Z,45.71
2023-04-27T17:20:06.548Z,45.72
2023-04-27T17:22:37.462Z,45.74
2023-04-27T17:25:09.420Z,45.81
2023-04-27T17:27:41.000Z,45.80
2023-04-27T17:30:12.426Z,45.80
2023-04-27T17:32:43.387Z,45.84
2023-04-27T17:35:14.147Z,45.82
2023-04-27T17:37:45.096Z,45.76
2023-04-27T17:40:20.376Z,45.73
2023-04-27T17:42:51.606Z,45.69
2023-04-27T17:45:22.560Z,45.66
2023-04-27T17:47:53.578Z,45.71
2023-04-27T17:50:25.765Z,45.65
2023-04-27T17:53:00.165Z,45.73
2023-04-27T17:55:31.447Z,45.69
2023-04-27T17:58:04.135Z,45.74
2023-04-27T18:00:35.811Z,45.73
2023-04-27T18:03:06.909Z,46.03
2023-04-27T18:05:38.000Z,46.13
2023-04-27T18:08:08.976Z,46.10
2023-04-27T18:10:39.953Z,46.19
2023-04-27T18:13:10.949Z,46.28
2023-04-27T18:15:41.895Z,46.50
2023-04-27T18:18:16.955Z,46.43
2023-04-27T18:20:47.978Z,46.51
2023-04-27T18:23:18.892Z,46.50
2023-04-27T18:25:55.426Z,46.55
2023-04-27T18:28:26.304Z,46.61
2023-04-27T18:30:57.134Z,46.66
2023-04-27T18:33:27.880Z,46.69
2023-04-27T18:35:58.951Z,46.76
2023-04-27T18:38:29.600Z,46.81
2023-04-27T18:41:00.490Z,46.80
2023-04-27T18:43:31.302Z,46.74
2023-04-27T18:46:02.521Z,46.86
2023-04-27T18:48:33.513Z,46.80
2023-04-27T18:51:04.493Z,46.79
2023-04-27T18:53:35.518Z,46.78
2023-04-27T18:56:07.173Z,46.78
2023-04-27T18:58:39.124Z,46.81
2023-04-27T19:01:16.404Z,46.71
2023-04-27T19:03:47.257Z,46.69
2023-04-27T19:06:21.331Z,46.57
2023-04-27T19:08:55.010Z,46.61
2023-04-27T19:11:26.153Z,46.63
2023-04-27T19:14:00.306Z,46.77
2023-04-27T19:16:31.337Z,47.00
2023-04-27T19:19:02.137Z,47.15
2023-04-27T19:21:33.013Z,47.07
2023-04-27T19:24:03.953Z,47.12
2023-04-27T19:26:34.849Z,46.56
2023-04-27T19:29:05.831Z,46.18
2023-04-27T19:31:36.597Z,45.64
2023-04-27T19:34:07.451Z,45.58
2023-04-27T19:36:39.787Z,45.68
2023-04-27T19:39:11.430Z,45.49
2023-04-27T19:41:42.200Z,45.61
2023-04-27T19:44:13.159Z,45.81
2023-04-27T19:46:44.492Z,45.79
2023-04-27T19:49:16.026Z,45.68
2023-04-27T19:51:46.850Z,45.78
2023-04-27T19:54:18.409Z,46.04
2023-04-27T19:56:49.295Z,46.00
2023-04-27T19:59:20.134Z,45.95
2023-04-27T20:01:50.943Z,46.20
2023-04-27T20:04:22.303Z,46.00
2023-04-27T20:06:53.576Z,46.08
2023-04-27T20:09:24.365Z,46.11
2023-04-27T20:11:55.914Z,46.22
2023-04-27T20:14:29.100Z,46.26
2023-04-27T20:16:59.993Z,46.19
2023-04-27T20:19:31.171Z,46.31
2023-04-27T20:22:03.007Z,46.47
2023-04-27T20:24:34.747Z,46.40
2023-04-27T20:27:06.384Z,46.50
2023-04-27T20:29:37.471Z,46.56
2023-04-27T20:32:08.281Z,46.45
2023-04-27T20:34:39.224Z,46.48
2023-04-27T20:37:10.750Z,46.41
2023-04-27T20:39:41.657Z,46.56
2023-04-27T20:42:13.184Z,46.50
2023-04-27T20:44:46.553Z,46.51
2023-04-27T20:47:17.480Z,46.58
2023-04-27T20:49:48.291Z,46.33
2023-04-27T20:52:19.101Z,46.50
2023-04-27T20:54:50.385Z,46.35
2023-04-27T20:57:21.234Z,46.46
2023-04-27T20:59:51.973Z,46.60
2023-04-27T21:02:23.012Z,46.65
2023-04-27T21:04:53.847Z,46.51
2023-04-27T21:07:24.695Z,46.68
2023-04-27T21:09:55.976Z,46.64
2023-04-27T21:12:26.847Z,46.75
2023-04-27T21:14:57.705Z,46.46
2023-04-27T21:17:28.546Z,46.61
2023-04-27T21:19:59.524Z,46.67
2023-04-27T21:22:30.434Z,46.61
2023-04-27T21:25:01.400Z,46.69
2023-04-27T21:27:32.249Z,46.59
2023-04-27T21:30:03.110Z,46.58
2023-04-27T21:32:34.052Z,46.73
2023-04-27T21:35:05.062Z,46.75
2023-04-27T21:37:35.985Z,46.60
2023-04-27T21:40:08.081Z,46.57
2023-04-27T21:42:38.831Z,46.58
2023-04-27T21:45:11.127Z,46.34
2023-04-27T21:47:41.937Z,46.46
2023-04-27T21:50:13.042Z,46.47
2023-04-27T21:52:43.921Z,46.29
2023-04-27T21:55:14.817Z,46.64
2023-04-27T21:57:45.645Z,46.45
2023-04-27T22:00:18.368Z,46.29
2023-04-27T22:02:49.911Z,46.28
2023-04-27T22:05:21.196Z,46.31
2023-04-27T22:07:52.012Z,46.31
2023-04-27T22:10:22.796Z,46.39
2023-04-27T22:12:53.608Z,46.37
2023-04-27T22:15:24.626Z,46.55
2023-04-27T22:17:56.020Z,46.40
2023-04-27T22:20:26.789Z,46.37
2023-04-27T22:22:57.677Z,46.40
2023-04-27T22:25:28.471Z,46.34
2023-04-27T22:27:59.185Z,46.36
2023-04-27T22:30:30.030Z,46.46
2023-04-27T22:33:00.886Z,46.23
2023-04-27T22:35:31.702Z,46.27
2023-04-27T22:38:02.398Z,46.25
2023-04-27T22:40:33.330Z,46.35
2023-04-27T22:43:04.199Z,46.34
2023-04-27T22:45:36.705Z,46.30
2023-04-27T22:48:09.789Z,46.37
2023-04-27T22:50:40.559Z,46.33
2023-04-27T22:53:11.339Z,46.35
2023-04-27T22:55:42.150Z,46.36
2023-04-27T22:58:12.886Z,46.22
2023-04-27T23:00:43.733Z,46.44
2023-04-27T23:03:14.688Z,46.33
2023-04-27T23:05:45.895Z,46.18
2023-04-27T23:08:17.155Z,46.32
2023-04-27T23:10:47.970Z,46.32
2023-04-27T23:13:18.937Z,46.31
2023-04-27T23:15:49.641Z,46.46
2023-04-27T23:18:20.356Z,46.66
2023-04-27T23:20:55.691Z,46.48
2023-04-27T23:23:26.633Z,46.34
2023-04-27T23:25:57.612Z,46.21
2023-04-27T23:28:28.285Z,46.48
2023-04-27T23:30:59.115Z,46.53
2023-04-27T23:33:29.852Z,46.47
2023-04-27T23:36:00.638Z,46.64
2023-04-27T23:38:31.404Z,46.97
2023-04-27T23:41:02.250Z,46.97
2023-04-27T23:43:32.991Z,46.91
2023-04-27T23:46:03.820Z,47.04
2023-04-27T23:48:34.533Z,47.08
2023-04-27T23:51:06.153Z,46.99
2023-04-27T23:53:36.890Z,47.19
2023-04-27T23:56:08.348Z,46.85
2023-04-27T23:58:39.109Z,47.00
